This is the latest recevied weather packets stored in our database for station/object KB9PMA-1. If no packets are shown the sender has not sent any weather packets the latest 10 day(s).
| Time | Temp. | Humidity | Pressure | Rain* | Wind** | Luminosity | Snow |
|---|---|---|---|---|---|---|---|
| 1777777683 | 3.89° C | 82% | 1019.4 hPa | 0 mm | - | - | - |
| 1777777383 | 3.89° C | 81% | 1019.4 hPa | 0 mm | - | - | - |
| 1777777083 | 3.89° C | 81% | 1019.4 hPa | 0 mm | - | - | - |
| 1777776783 | 3.89° C | 81% | 1019.4 hPa | 0 mm | - | - | - |
| 1777776483 | 3.89° C | 81% | 1019.4 hPa | 0 mm | - | - | - |
| 1777776183 | 4.44° C | 81% | 1019.4 hPa | 0 mm | - | - | - |
| 1777775884 | 4.44° C | 77% | 1019.4 hPa | 0 mm | - | - | - |
| 1777775584 | 4.44° C | 79% | 1019.3 hPa | 0 mm | - | - | - |
| 1777775284 | 4.44° C | 81% | 1019.4 hPa | 0 mm | - | - | - |
| 1777774984 | 5° C | 80% | 1019.4 hPa | 0 mm | - | - | - |
| 1777774684 | 5° C | 74% | 1019.3 hPa | 0 mm | - | - | - |
| 1777774384 | 5° C | 69% | 1019.3 hPa | 0 mm | - | - | - |
| 1777774084 | 5.56° C | 70% | 1019.3 hPa | 0 mm | - | - | - |
| 1777773786 | 5.56° C | 69% | 1019.3 hPa | 0 mm | - | - | - |
| 1777772884 | 6.11° C | 65% | 1019.2 hPa | 0 mm | - | - | - |
| 1777772284 | 6.11° C | 62% | 1019.2 hPa | 0 mm | - | - | - |
| 1777768384 | 9.44° C | 50% | 1019.2 hPa | 0 mm | - | - | - |
| 1777767484 | 9.44° C | 45% | 1019 hPa | 0 mm | - | - | - |
| 1777765384 | 10.56° C | 42% | 1018.7 hPa | 0 mm | - | - | - |
| 1777764184 | 11.11° C | 44% | 1019 hPa | 0 mm | - | - | - |
| 1777761184 | 11.11° C | 46% | 1018.6 hPa | 0 mm | - | - | - |
| 1777760584 | 11.11° C | 43% | 1018.7 hPa | 0 mm | - | - | - |
| 1777757884 | 12.22° C | 42% | 1018.6 hPa | 0 mm | - | - | - |
| 1777744685 | 9.44° C | 56% | 1020.1 hPa | 0 mm | - | - | - |
| 1777744085 | 10° C | 52% | 1020.3 hPa | 0 mm | - | - | - |
* Rain latest hour (hover to see other rain measurements)
** Current wind speed in m/s (hover to see current wind gust speed)